sensor_id;sensor_type;location;lat;lon;timestamp;temperature;humidity
8611;DHT22;4343;53.648;10.098;2023-07-20T00:00:50;14.60;99.90
8611;DHT22;4343;53.648;10.098;2023-07-20T00:03:19;14.60;99.90
8611;DHT22;4343;53.648;10.098;2023-07-20T00:05:50;14.60;99.90
8611;DHT22;4343;53.648;10.098;2023-07-20T00:08:17;14.60;99.90
8611;DHT22;4343;53.648;10.098;2023-07-20T00:10:43;14.60;99.90
8611;DHT22;4343;53.648;10.098;2023-07-20T00:13:10;14.60;99.90
8611;DHT22;4343;53.648;10.098;2023-07-20T00:15:35;14.60;99.90
8611;DHT22;4343;53.648;10.098;2023-07-20T00:18:01;14.60;99.90
8611;DHT22;4343;53.648;10.098;2023-07-20T00:20:27;14.60;99.90
8611;DHT22;4343;53.648;10.098;2023-07-20T00:22:52;14.60;99.90
8611;DHT22;4343;53.648;10.098;2023-07-20T00:25:18;14.60;99.90
8611;DHT22;4343;53.648;10.098;2023-07-20T00:27:44;14.60;99.90
8611;DHT22;4343;53.648;10.098;2023-07-20T00:30:10;14.60;99.90
8611;DHT22;4343;53.648;10.098;2023-07-20T00:32:35;14.70;99.90
8611;DHT22;4343;53.648;10.098;2023-07-20T00:35:01;14.60;99.90
8611;DHT22;4343;53.648;10.098;2023-07-20T00:37:26;14.70;99.90
8611;DHT22;4343;53.648;10.098;2023-07-20T00:39:53;14.60;99.90
8611;DHT22;4343;53.648;10.098;2023-07-20T00:42:18;14.70;99.90
8611;DHT22;4343;53.648;10.098;2023-07-20T00:44:44;14.70;99.90
8611;DHT22;4343;53.648;10.098;2023-07-20T00:47:10;14.60;99.90
8611;DHT22;4343;53.648;10.098;2023-07-20T00:49:36;14.70;99.90
8611;DHT22;4343;53.648;10.098;2023-07-20T00:52:03;14.70;99.90
8611;DHT22;4343;53.648;10.098;2023-07-20T00:54:30;14.70;99.90
8611;DHT22;4343;53.648;10.098;2023-07-20T00:56:55;14.70;99.90
8611;DHT22;4343;53.648;10.098;2023-07-20T00:59:22;14.70;99.90
8611;DHT22;4343;53.648;10.098;2023-07-20T01:01:47;14.70;99.90
8611;DHT22;4343;53.648;10.098;2023-07-20T01:04:13;14.70;99.90
8611;DHT22;4343;53.648;10.098;2023-07-20T01:11:57;14.70;99.90
8611;DHT22;4343;53.648;10.098;2023-07-20T01:14:25;14.70;99.90
8611;DHT22;4343;53.648;10.098;2023-07-20T01:16:51;14.70;99.90
8611;DHT22;4343;53.648;10.098;2023-07-20T01:19:18;14.70;99.90
8611;DHT22;4343;53.648;10.098;2023-07-20T01:21:53;14.70;99.90
8611;DHT22;4343;53.648;10.098;2023-07-20T01:30:39;14.70;99.90
8611;DHT22;4343;53.648;10.098;2023-07-20T01:33:07;14.70;99.90
8611;DHT22;4343;53.648;10.098;2023-07-20T01:35:34;14.70;99.90
8611;DHT22;4343;53.648;10.098;2023-07-20T01:38:01;14.70;99.90
8611;DHT22;4343;53.648;10.098;2023-07-20T01:40:27;14.70;99.90
8611;DHT22;4343;53.648;10.098;2023-07-20T01:42:53;14.70;99.90
8611;DHT22;4343;53.648;10.098;2023-07-20T01:45:19;14.70;99.90
8611;DHT22;4343;53.648;10.098;2023-07-20T01:47:44;14.70;99.90
8611;DHT22;4343;53.648;10.098;2023-07-20T01:50:10;14.70;99.90
8611;DHT22;4343;53.648;10.098;2023-07-20T01:52:36;14.70;99.90
8611;DHT22;4343;53.648;10.098;2023-07-20T01:55:01;14.70;99.90
8611;DHT22;4343;53.648;10.098;2023-07-20T01:57:27;14.70;99.90
8611;DHT22;4343;53.648;10.098;2023-07-20T01:59:52;14.70;99.90
8611;DHT22;4343;53.648;10.098;2023-07-20T02:02:18;14.70;99.90
8611;DHT22;4343;53.648;10.098;2023-07-20T02:04:45;14.70;99.90
8611;DHT22;4343;53.648;10.098;2023-07-20T02:07:11;14.70;99.90
8611;DHT22;4343;53.648;10.098;2023-07-20T02:09:36;14.70;99.90
8611;DHT22;4343;53.648;10.098;2023-07-20T02:12:02;14.70;99.90
8611;DHT22;4343;53.648;10.098;2023-07-20T02:14:28;14.70;99.90
8611;DHT22;4343;53.648;10.098;2023-07-20T02:16:53;14.70;99.90
8611;DHT22;4343;53.648;10.098;2023-07-20T02:19:24;14.60;99.90
8611;DHT22;4343;53.648;10.098;2023-07-20T02:21:49;14.60;99.90
8611;DHT22;4343;53.648;10.098;2023-07-20T02:24:15;14.60;99.90
8611;DHT22;4343;53.648;10.098;2023-07-20T02:26:40;14.60;99.90
8611;DHT22;4343;53.648;10.098;2023-07-20T02:29:06;14.60;99.90
8611;DHT22;4343;53.648;10.098;2023-07-20T02:31:33;14.70;99.90
8611;DHT22;4343;53.648;10.098;2023-07-20T02:33:59;14.70;99.90
8611;DHT22;4343;53.648;10.098;2023-07-20T02:36:24;14.70;99.90
8611;DHT22;4343;53.648;10.098;2023-07-20T02:38:50;14.70;99.90
8611;DHT22;4343;53.648;10.098;2023-07-20T02:41:15;14.70;99.90
8611;DHT22;4343;53.648;10.098;2023-07-20T02:43:41;14.70;99.90
8611;DHT22;4343;53.648;10.098;2023-07-20T02:46:06;14.80;99.90
8611;DHT22;4343;53.648;10.098;2023-07-20T02:48:32;14.70;99.90
8611;DHT22;4343;53.648;10.098;2023-07-20T02:50:57;14.70;99.90
8611;DHT22;4343;53.648;10.098;2023-07-20T02:53:23;14.70;99.90
8611;DHT22;4343;53.648;10.098;2023-07-20T02:55:48;14.70;99.90
8611;DHT22;4343;53.648;10.098;2023-07-20T02:58:14;14.70;99.90
8611;DHT22;4343;53.648;10.098;2023-07-20T03:00:39;14.80;99.90
8611;DHT22;4343;53.648;10.098;2023-07-20T03:03:05;14.80;99.90
8611;DHT22;4343;53.648;10.098;2023-07-20T03:05:34;14.80;99.90
8611;DHT22;4343;53.648;10.098;2023-07-20T03:08:00;14.80;99.90
8611;DHT22;4343;53.648;10.098;2023-07-20T03:10:28;14.80;99.90
8611;DHT22;4343;53.648;10.098;2023-07-20T03:12:53;14.80;99.90
8611;DHT22;4343;53.648;10.098;2023-07-20T03:15:19;14.80;99.90
8611;DHT22;4343;53.648;10.098;2023-07-20T03:17:44;14.80;99.90
8611;DHT22;4343;53.648;10.098;2023-07-20T03:20:11;14.80;99.90
8611;DHT22;4343;53.648;10.098;2023-07-20T03:22:38;14.80;99.90
8611;DHT22;4343;53.648;10.098;2023-07-20T03:25:04;14.70;99.90
8611;DHT22;4343;53.648;10.098;2023-07-20T03:27:30;14.70;99.90
8611;DHT22;4343;53.648;10.098;2023-07-20T03:29:55;14.80;99.90
8611;DHT22;4343;53.648;10.098;2023-07-20T03:32:21;14.80;99.90
8611;DHT22;4343;53.648;10.098;2023-07-20T03:34:46;14.80;99.90
8611;DHT22;4343;53.648;10.098;2023-07-20T03:37:13;14.80;99.90
8611;DHT22;4343;53.648;10.098;2023-07-20T03:39:38;14.80;99.90
8611;DHT22;4343;53.648;10.098;2023-07-20T03:42:04;14.80;99.90
8611;DHT22;4343;53.648;10.098;2023-07-20T03:44:30;14.80;99.90
8611;DHT22;4343;53.648;10.098;2023-07-20T03:46:56;14.80;99.90
8611;DHT22;4343;53.648;10.098;2023-07-20T03:49:21;14.80;99.90
8611;DHT22;4343;53.648;10.098;2023-07-20T03:51:47;14.80;99.90
8611;DHT22;4343;53.648;10.098;2023-07-20T03:54:12;14.80;99.90
8611;DHT22;4343;53.648;10.098;2023-07-20T03:56:38;14.80;99.90
8611;DHT22;4343;53.648;10.098;2023-07-20T03:59:04;14.80;99.90
8611;DHT22;4343;53.648;10.098;2023-07-20T04:01:30;14.80;99.90
8611;DHT22;4343;53.648;10.098;2023-07-20T04:03:55;14.80;99.90
8611;DHT22;4343;53.648;10.098;2023-07-20T04:06:21;14.80;99.90
8611;DHT22;4343;53.648;10.098;2023-07-20T04:08:46;14.80;99.90
8611;DHT22;4343;53.648;10.098;2023-07-20T04:11:15;14.80;99.90
8611;DHT22;4343;53.648;10.098;2023-07-20T04:13:41;14.80;99.90
8611;DHT22;4343;53.648;10.098;2023-07-20T04:16:06;14.80;99.90
8611;DHT22;4343;53.648;10.098;2023-07-20T04:18:32;14.80;99.90
8611;DHT22;4343;53.648;10.098;2023-07-20T04:20:57;14.80;99.90
8611;DHT22;4343;53.648;10.098;2023-07-20T04:23:23;14.80;99.90
8611;DHT22;4343;53.648;10.098;2023-07-20T04:25:48;14.80;99.90
8611;DHT22;4343;53.648;10.098;2023-07-20T04:28:14;14.80;99.90
8611;DHT22;4343;53.648;10.098;2023-07-20T04:30:39;14.80;99.90
8611;DHT22;4343;53.648;10.098;2023-07-20T04:33:05;14.80;99.90
8611;DHT22;4343;53.648;10.098;2023-07-20T04:35:51;14.80;99.90
8611;DHT22;4343;53.648;10.098;2023-07-20T04:38:17;14.80;99.90
8611;DHT22;4343;53.648;10.098;2023-07-20T04:40:47;14.80;99.90
8611;DHT22;4343;53.648;10.098;2023-07-20T04:43:14;14.80;99.90
8611;DHT22;4343;53.648;10.098;2023-07-20T04:45:39;14.80;99.90
8611;DHT22;4343;53.648;10.098;2023-07-20T04:48:09;14.80;99.90
8611;DHT22;4343;53.648;10.098;2023-07-20T04:50:35;14.80;99.90
8611;DHT22;4343;53.648;10.098;2023-07-20T04:53:01;14.90;99.90
8611;DHT22;4343;53.648;10.098;2023-07-20T04:55:27;14.90;99.90
8611;DHT22;4343;53.648;10.098;2023-07-20T04:57:53;14.90;99.90
8611;DHT22;4343;53.648;10.098;2023-07-20T05:00:19;14.90;99.90
8611;DHT22;4343;53.648;10.098;2023-07-20T05:02:45;14.90;99.90
8611;DHT22;4343;53.648;10.098;2023-07-20T05:05:12;14.90;99.90
8611;DHT22;4343;53.648;10.098;2023-07-20T05:07:38;14.90;99.90
8611;DHT22;4343;53.648;10.098;2023-07-20T05:10:04;15.00;99.90
8611;DHT22;4343;53.648;10.098;2023-07-20T05:12:30;15.00;99.90
8611;DHT22;4343;53.648;10.098;2023-07-20T05:14:55;15.00;99.90
8611;DHT22;4343;53.648;10.098;2023-07-20T05:17:21;14.90;99.90
8611;DHT22;4343;53.648;10.098;2023-07-20T05:19:46;15.00;99.90
8611;DHT22;4343;53.648;10.098;2023-07-20T05:22:13;15.00;99.90
8611;DHT22;4343;53.648;10.098;2023-07-20T05:24:39;15.00;99.90
8611;DHT22;4343;53.648;10.098;2023-07-20T05:27:05;15.10;99.90
8611;DHT22;4343;53.648;10.098;2023-07-20T05:29:30;15.10;99.90
8611;DHT22;4343;53.648;10.098;2023-07-20T05:31:57;15.20;99.90
8611;DHT22;4343;53.648;10.098;2023-07-20T05:34:22;15.20;99.90
8611;DHT22;4343;53.648;10.098;2023-07-20T05:36:48;15.30;99.90
8611;DHT22;4343;53.648;10.098;2023-07-20T05:39:16;15.40;99.90
8611;DHT22;4343;53.648;10.098;2023-07-20T05:41:42;15.50;99.90
8611;DHT22;4343;53.648;10.098;2023-07-20T05:44:11;15.50;99.90
8611;DHT22;4343;53.648;10.098;2023-07-20T05:46:36;15.60;99.90
8611;DHT22;4343;53.648;10.098;2023-07-20T05:49:02;15.70;99.90
8611;DHT22;4343;53.648;10.098;2023-07-20T05:51:27;15.70;99.90
8611;DHT22;4343;53.648;10.098;2023-07-20T05:53:53;15.80;99.90
8611;DHT22;4343;53.648;10.098;2023-07-20T05:56:19;15.90;99.90
8611;DHT22;4343;53.648;10.098;2023-07-20T05:58:44;16.00;99.90
8611;DHT22;4343;53.648;10.098;2023-07-20T06:01:10;16.10;99.90
8611;DHT22;4343;53.648;10.098;2023-07-20T06:03:35;16.20;99.90
8611;DHT22;4343;53.648;10.098;2023-07-20T06:06:02;16.30;99.90
8611;DHT22;4343;53.648;10.098;2023-07-20T06:08:30;16.40;99.90
8611;DHT22;4343;53.648;10.098;2023-07-20T06:10:55;16.50;99.90
8611;DHT22;4343;53.648;10.098;2023-07-20T06:13:21;16.50;99.90
8611;DHT22;4343;53.648;10.098;2023-07-20T06:15:46;16.60;99.90
8611;DHT22;4343;53.648;10.098;2023-07-20T06:18:13;16.60;99.90
8611;DHT22;4343;53.648;10.098;2023-07-20T06:20:38;16.70;99.90
8611;DHT22;4343;53.648;10.098;2023-07-20T06:23:04;16.80;99.90
8611;DHT22;4343;53.648;10.098;2023-07-20T06:25:29;16.90;99.90
8611;DHT22;4343;53.648;10.098;2023-07-20T06:27:56;17.00;99.90
8611;DHT22;4343;53.648;10.098;2023-07-20T06:30:21;17.10;99.90
8611;DHT22;4343;53.648;10.098;2023-07-20T06:32:47;17.10;99.90
8611;DHT22;4343;53.648;10.098;2023-07-20T06:35:13;17.10;99.90
8611;DHT22;4343;53.648;10.098;2023-07-20T06:37:39;17.00;99.90
8611;DHT22;4343;53.648;10.098;2023-07-20T06:40:05;17.10;99.90
8611;DHT22;4343;53.648;10.098;2023-07-20T06:42:31;17.30;99.90
8611;DHT22;4343;53.648;10.098;2023-07-20T06:44:57;17.50;99.90
8611;DHT22;4343;53.648;10.098;2023-07-20T06:47:23;17.70;99.90
8611;DHT22;4343;53.648;10.098;2023-07-20T06:49:48;17.90;99.90
8611;DHT22;4343;53.648;10.098;2023-07-20T06:52:15;18.10;99.90
8611;DHT22;4343;53.648;10.098;2023-07-20T06:54:40;18.30;99.90
8611;DHT22;4343;53.648;10.098;2023-07-20T06:57:06;18.40;99.90
8611;DHT22;4343;53.648;10.098;2023-07-20T06:59:32;18.60;99.90
8611;DHT22;4343;53.648;10.098;2023-07-20T07:01:57;18.60;99.90
8611;DHT22;4343;53.648;10.098;2023-07-20T07:04:23;18.70;99.90
8611;DHT22;4343;53.648;10.098;2023-07-20T07:06:48;18.70;99.90
8611;DHT22;4343;53.648;10.098;2023-07-20T07:09:14;18.80;99.90
8611;DHT22;4343;53.648;10.098;2023-07-20T07:11:39;18.90;99.90
8611;DHT22;4343;53.648;10.098;2023-07-20T07:14:05;19.00;99.90
8611;DHT22;4343;53.648;10.098;2023-07-20T07:16:31;19.20;99.90
8611;DHT22;4343;53.648;10.098;2023-07-20T07:18:56;19.30;99.90
8611;DHT22;4343;53.648;10.098;2023-07-20T07:21:22;19.30;99.90
8611;DHT22;4343;53.648;10.098;2023-07-20T07:23:47;19.30;99.90
8611;DHT22;4343;53.648;10.098;2023-07-20T07:26:13;19.40;99.90
8611;DHT22;4343;53.648;10.098;2023-07-20T07:28:38;19.50;99.90
8611;DHT22;4343;53.648;10.098;2023-07-20T07:31:05;19.60;99.90
8611;DHT22;4343;53.648;10.098;2023-07-20T07:33:31;19.70;99.90
8611;DHT22;4343;53.648;10.098;2023-07-20T07:35:57;19.80;99.90
8611;DHT22;4343;53.648;10.098;2023-07-20T07:38:23;19.90;99.90
8611;DHT22;4343;53.648;10.098;2023-07-20T07:40:48;19.80;99.90
8611;DHT22;4343;53.648;10.098;2023-07-20T07:43:14;19.60;99.90
8611;DHT22;4343;53.648;10.098;2023-07-20T07:45:40;19.50;99.90
8611;DHT22;4343;53.648;10.098;2023-07-20T07:48:06;19.30;99.90
8611;DHT22;4343;53.648;10.098;2023-07-20T07:50:33;19.10;99.90
8611;DHT22;4343;53.648;10.098;2023-07-20T07:52:58;18.90;99.90
8611;DHT22;4343;53.648;10.098;2023-07-20T07:55:24;18.70;99.90
8611;DHT22;4343;53.648;10.098;2023-07-20T07:57:52;18.50;99.90
8611;DHT22;4343;53.648;10.098;2023-07-20T08:00:18;18.40;99.90
8611;DHT22;4343;53.648;10.098;2023-07-20T08:02:45;18.40;99.90
8611;DHT22;4343;53.648;10.098;2023-07-20T08:05:12;18.40;99.90
8611;DHT22;4343;53.648;10.098;2023-07-20T08:07:37;18.40;99.90
8611;DHT22;4343;53.648;10.098;2023-07-20T08:10:03;18.50;99.90
8611;DHT22;4343;53.648;10.098;2023-07-20T08:12:29;18.50;99.90
8611;DHT22;4343;53.648;10.098;2023-07-20T08:14:55;18.60;99.90
8611;DHT22;4343;53.648;10.098;2023-07-20T08:17:20;18.80;99.90
8611;DHT22;4343;53.648;10.098;2023-07-20T08:19:46;18.90;99.90
8611;DHT22;4343;53.648;10.098;2023-07-20T08:22:12;19.10;99.90
8611;DHT22;4343;53.648;10.098;2023-07-20T08:24:41;19.20;99.90
8611;DHT22;4343;53.648;10.098;2023-07-20T08:27:07;19.30;99.90
8611;DHT22;4343;53.648;10.098;2023-07-20T08:29:34;19.40;99.90
8611;DHT22;4343;53.648;10.098;2023-07-20T08:31:59;19.40;99.90
8611;DHT22;4343;53.648;10.098;2023-07-20T08:34:25;19.40;99.90
8611;DHT22;4343;53.648;10.098;2023-07-20T08:36:50;19.50;99.90
8611;DHT22;4343;53.648;10.098;2023-07-20T08:39:16;19.60;99.90
8611;DHT22;4343;53.648;10.098;2023-07-20T08:41:43;19.60;99.90
8611;DHT22;4343;53.648;10.098;2023-07-20T08:44:09;19.70;99.90
8611;DHT22;4343;53.648;10.098;2023-07-20T08:46:38;19.70;99.90
8611;DHT22;4343;53.648;10.098;2023-07-20T08:49:04;19.80;99.90
8611;DHT22;4343;53.648;10.098;2023-07-20T08:51:30;19.90;99.90
8611;DHT22;4343;53.648;10.098;2023-07-20T08:53:58;20.00;99.90
8611;DHT22;4343;53.648;10.098;2023-07-20T08:56:25;20.20;99.90
8611;DHT22;4343;53.648;10.098;2023-07-20T08:58:55;20.30;99.90
8611;DHT22;4343;53.648;10.098;2023-07-20T09:01:22;20.40;99.90
8611;DHT22;4343;53.648;10.098;2023-07-20T09:03:49;20.50;99.90
8611;DHT22;4343;53.648;10.098;2023-07-20T09:06:15;20.60;99.90
8611;DHT22;4343;53.648;10.098;2023-07-20T09:08:41;20.60;99.90
8611;DHT22;4343;53.648;10.098;2023-07-20T09:11:07;20.70;99.90
8611;DHT22;4343;53.648;10.098;2023-07-20T09:13:34;20.80;99.90
8611;DHT22;4343;53.648;10.098;2023-07-20T09:16:00;20.90;99.90
8611;DHT22;4343;53.648;10.098;2023-07-20T09:18:29;21.00;99.90
8611;DHT22;4343;53.648;10.098;2023-07-20T09:20:58;21.10;99.90
8611;DHT22;4343;53.648;10.098;2023-07-20T09:23:33;21.20;99.90
8611;DHT22;4343;53.648;10.098;2023-07-20T09:26:00;21.20;99.90
8611;DHT22;4343;53.648;10.098;2023-07-20T09:28:26;21.20;99.90
8611;DHT22;4343;53.648;10.098;2023-07-20T09:30:54;21.10;99.90
8611;DHT22;4343;53.648;10.098;2023-07-20T09:33:21;20.90;99.90
8611;DHT22;4343;53.648;10.098;2023-07-20T09:35:47;20.70;99.90
8611;DHT22;4343;53.648;10.098;2023-07-20T09:38:14;20.60;99.90
8611;DHT22;4343;53.648;10.098;2023-07-20T09:40:41;20.50;99.90
8611;DHT22;4343;53.648;10.098;2023-07-20T09:43:10;20.50;99.90
8611;DHT22;4343;53.648;10.098;2023-07-20T09:45:40;20.60;99.90
8611;DHT22;4343;53.648;10.098;2023-07-20T09:48:08;20.70;99.90
8611;DHT22;4343;53.648;10.098;2023-07-20T09:50:41;20.70;99.90
8611;DHT22;4343;53.648;10.098;2023-07-20T09:53:12;20.80;99.90
8611;DHT22;4343;53.648;10.098;2023-07-20T09:55:40;21.00;99.90
8611;DHT22;4343;53.648;10.098;2023-07-20T09:58:06;21.10;99.90
8611;DHT22;4343;53.648;10.098;2023-07-20T10:00:36;21.20;99.90
8611;DHT22;4343;53.648;10.098;2023-07-20T10:03:04;21.30;99.90
8611;DHT22;4343;53.648;10.098;2023-07-20T10:05:34;21.40;99.90
8611;DHT22;4343;53.648;10.098;2023-07-20T10:08:02;21.40;99.90
8611;DHT22;4343;53.648;10.098;2023-07-20T10:10:31;21.50;99.90
8611;DHT22;4343;53.648;10.098;2023-07-20T10:12:58;21.70;99.90
8611;DHT22;4343;53.648;10.098;2023-07-20T10:15:46;21.70;99.90
8611;DHT22;4343;53.648;10.098;2023-07-20T10:18:23;21.80;99.90
8611;DHT22;4343;53.648;10.098;2023-07-20T10:20:52;21.90;99.90
8611;DHT22;4343;53.648;10.098;2023-07-20T10:23:19;22.10;99.90
8611;DHT22;4343;53.648;10.098;2023-07-20T10:25:46;22.30;99.90
8611;DHT22;4343;53.648;10.098;2023-07-20T10:28:13;22.30;99.90
8611;DHT22;4343;53.648;10.098;2023-07-20T10:30:39;22.30;99.90
8611;DHT22;4343;53.648;10.098;2023-07-20T10:33:05;22.30;99.90
8611;DHT22;4343;53.648;10.098;2023-07-20T10:35:57;22.20;99.90
8611;DHT22;4343;53.648;10.098;2023-07-20T10:41:22;21.90;99.90
8611;DHT22;4343;53.648;10.098;2023-07-20T10:43:50;21.70;99.90
8611;DHT22;4343;53.648;10.098;2023-07-20T10:46:34;21.50;99.90
8611;DHT22;4343;53.648;10.098;2023-07-20T10:49:01;21.30;99.90
8611;DHT22;4343;53.648;10.098;2023-07-20T10:51:28;21.20;99.90
8611;DHT22;4343;53.648;10.098;2023-07-20T10:53:58;21.10;99.90
8611;DHT22;4343;53.648;10.098;2023-07-20T10:56:27;21.20;99.90
8611;DHT22;4343;53.648;10.098;2023-07-20T10:58:57;21.20;99.90
8611;DHT22;4343;53.648;10.098;2023-07-20T11:01:28;21.30;99.90
8611;DHT22;4343;53.648;10.098;2023-07-20T11:04:00;21.40;99.90
8611;DHT22;4343;53.648;10.098;2023-07-20T11:09:10;21.60;99.90
8611;DHT22;4343;53.648;10.098;2023-07-20T11:11:37;21.60;99.90
8611;DHT22;4343;53.648;10.098;2023-07-20T11:14:05;21.60;99.90
8611;DHT22;4343;53.648;10.098;2023-07-20T11:16:46;21.60;99.90
8611;DHT22;4343;53.648;10.098;2023-07-20T11:19:24;21.50;99.90
8611;DHT22;4343;53.648;10.098;2023-07-20T11:21:55;21.60;99.90
8611;DHT22;4343;53.648;10.098;2023-07-20T11:24:20;21.60;99.90
8611;DHT22;4343;53.648;10.098;2023-07-20T11:26:53;21.80;99.90
8611;DHT22;4343;53.648;10.098;2023-07-20T11:29:21;22.00;99.90
8611;DHT22;4343;53.648;10.098;2023-07-20T11:31:48;22.10;99.90
8611;DHT22;4343;53.648;10.098;2023-07-20T11:34:15;22.20;99.90
8611;DHT22;4343;53.648;10.098;2023-07-20T11:36:42;22.30;99.90
8611;DHT22;4343;53.648;10.098;2023-07-20T11:39:13;22.40;99.90
8611;DHT22;4343;53.648;10.098;2023-07-20T11:41:43;22.50;99.90
8611;DHT22;4343;53.648;10.098;2023-07-20T11:44:09;22.70;99.90
8611;DHT22;4343;53.648;10.098;2023-07-20T11:46:39;22.80;99.90
8611;DHT22;4343;53.648;10.098;2023-07-20T11:49:05;22.90;99.90
8611;DHT22;4343;53.648;10.098;2023-07-20T11:51:31;22.90;99.90
8611;DHT22;4343;53.648;10.098;2023-07-20T11:53:58;22.90;99.90
8611;DHT22;4343;53.648;10.098;2023-07-20T11:56:25;22.80;99.90
8611;DHT22;4343;53.648;10.098;2023-07-20T11:58:53;22.60;99.90
8611;DHT22;4343;53.648;10.098;2023-07-20T12:01:19;22.40;99.90
8611;DHT22;4343;53.648;10.098;2023-07-20T12:03:47;22.20;99.90
8611;DHT22;4343;53.648;10.098;2023-07-20T12:06:13;21.80;99.90
8611;DHT22;4343;53.648;10.098;2023-07-20T12:08:43;21.50;99.90
8611;DHT22;4343;53.648;10.098;2023-07-20T12:11:09;21.30;99.90
8611;DHT22;4343;53.648;10.098;2023-07-20T12:13:40;21.00;99.90
8611;DHT22;4343;53.648;10.098;2023-07-20T12:16:09;20.80;99.90
8611;DHT22;4343;53.648;10.098;2023-07-20T12:18:35;20.60;99.90
8611;DHT22;4343;53.648;10.098;2023-07-20T12:21:06;20.50;99.90
8611;DHT22;4343;53.648;10.098;2023-07-20T12:23:39;20.40;99.90
8611;DHT22;4343;53.648;10.098;2023-07-20T12:26:09;20.20;99.90
8611;DHT22;4343;53.648;10.098;2023-07-20T12:28:41;20.10;99.90
8611;DHT22;4343;53.648;10.098;2023-07-20T12:31:08;20.10;99.90
8611;DHT22;4343;53.648;10.098;2023-07-20T12:33:35;20.10;99.90
8611;DHT22;4343;53.648;10.098;2023-07-20T12:36:00;20.10;99.90
8611;DHT22;4343;53.648;10.098;2023-07-20T12:38:26;20.10;99.90
8611;DHT22;4343;53.648;10.098;2023-07-20T12:40:53;20.20;99.90
8611;DHT22;4343;53.648;10.098;2023-07-20T12:43:20;20.40;99.90
8611;DHT22;4343;53.648;10.098;2023-07-20T12:45:46;20.60;99.90
8611;DHT22;4343;53.648;10.098;2023-07-20T12:48:12;20.70;99.90
8611;DHT22;4343;53.648;10.098;2023-07-20T12:50:37;20.90;99.90
8611;DHT22;4343;53.648;10.098;2023-07-20T12:53:03;21.00;99.90
8611;DHT22;4343;53.648;10.098;2023-07-20T12:55:29;21.00;99.90
8611;DHT22;4343;53.648;10.098;2023-07-20T12:57:55;21.00;99.90
8611;DHT22;4343;53.648;10.098;2023-07-20T13:00:21;21.00;99.90
8611;DHT22;4343;53.648;10.098;2023-07-20T13:02:51;21.00;99.90
8611;DHT22;4343;53.648;10.098;2023-07-20T13:05:17;20.90;99.90
8611;DHT22;4343;53.648;10.098;2023-07-20T13:07:43;21.00;99.90
8611;DHT22;4343;53.648;10.098;2023-07-20T13:10:10;21.00;99.90
8611;DHT22;4343;53.648;10.098;2023-07-20T13:12:36;21.00;99.90
8611;DHT22;4343;53.648;10.098;2023-07-20T13:15:03;21.00;99.90
8611;DHT22;4343;53.648;10.098;2023-07-20T13:17:34;21.00;99.90
8611;DHT22;4343;53.648;10.098;2023-07-20T13:20:00;21.10;99.90
8611;DHT22;4343;53.648;10.098;2023-07-20T13:22:26;21.10;99.90
8611;DHT22;4343;53.648;10.098;2023-07-20T13:24:52;21.10;99.90
8611;DHT22;4343;53.648;10.098;2023-07-20T13:27:19;21.10;99.90
8611;DHT22;4343;53.648;10.098;2023-07-20T13:29:46;21.10;99.90
8611;DHT22;4343;53.648;10.098;2023-07-20T13:32:15;21.10;99.90
8611;DHT22;4343;53.648;10.098;2023-07-20T13:34:41;21.00;99.90
8611;DHT22;4343;53.648;10.098;2023-07-20T13:37:08;20.90;99.90
8611;DHT22;4343;53.648;10.098;2023-07-20T13:39:34;20.90;99.90
8611;DHT22;4343;53.648;10.098;2023-07-20T13:41:59;20.90;99.90
8611;DHT22;4343;53.648;10.098;2023-07-20T13:44:27;21.00;99.90
8611;DHT22;4343;53.648;10.098;2023-07-20T13:46:53;21.20;99.90
8611;DHT22;4343;53.648;10.098;2023-07-20T13:49:19;21.40;99.90
8611;DHT22;4343;53.648;10.098;2023-07-20T13:51:44;21.60;99.90
8611;DHT22;4343;53.648;10.098;2023-07-20T13:54:10;21.70;99.90
8611;DHT22;4343;53.648;10.098;2023-07-20T13:56:37;21.80;99.90
8611;DHT22;4343;53.648;10.098;2023-07-20T13:59:02;21.80;99.90
8611;DHT22;4343;53.648;10.098;2023-07-20T14:01:28;21.80;99.90
8611;DHT22;4343;53.648;10.098;2023-07-20T14:03:55;21.70;99.90
8611;DHT22;4343;53.648;10.098;2023-07-20T14:06:21;21.60;99.90
8611;DHT22;4343;53.648;10.098;2023-07-20T14:08:46;21.60;99.90
8611;DHT22;4343;53.648;10.098;2023-07-20T14:11:14;21.60;99.90
8611;DHT22;4343;53.648;10.098;2023-07-20T14:13:39;21.70;99.90
8611;DHT22;4343;53.648;10.098;2023-07-20T14:16:05;21.90;99.90
8611;DHT22;4343;53.648;10.098;2023-07-20T14:18:31;22.00;99.90
8611;DHT22;4343;53.648;10.098;2023-07-20T14:20:56;22.20;99.90
8611;DHT22;4343;53.648;10.098;2023-07-20T14:23:22;22.30;99.90
8611;DHT22;4343;53.648;10.098;2023-07-20T14:25:48;22.40;99.90
8611;DHT22;4343;53.648;10.098;2023-07-20T14:28:14;22.50;99.90
8611;DHT22;4343;53.648;10.098;2023-07-20T14:30:39;22.50;99.90
8611;DHT22;4343;53.648;10.098;2023-07-20T14:33:05;22.50;99.90
8611;DHT22;4343;53.648;10.098;2023-07-20T14:35:31;22.40;99.90
8611;DHT22;4343;53.648;10.098;2023-07-20T14:37:56;22.30;99.90
8611;DHT22;4343;53.648;10.098;2023-07-20T14:40:22;22.20;99.90
8611;DHT22;4343;53.648;10.098;2023-07-20T14:42:47;22.00;99.90
8611;DHT22;4343;53.648;10.098;2023-07-20T14:45:14;21.90;99.90
8611;DHT22;4343;53.648;10.098;2023-07-20T14:47:39;21.70;99.90
8611;DHT22;4343;53.648;10.098;2023-07-20T14:50:06;21.50;99.90
8611;DHT22;4343;53.648;10.098;2023-07-20T14:52:31;21.30;99.90
8611;DHT22;4343;53.648;10.098;2023-07-20T14:54:57;21.20;99.90
8611;DHT22;4343;53.648;10.098;2023-07-20T14:57:23;21.00;99.90
8611;DHT22;4343;53.648;10.098;2023-07-20T14:59:52;20.90;99.90
8611;DHT22;4343;53.648;10.098;2023-07-20T15:02:20;20.70;99.90
8611;DHT22;4343;53.648;10.098;2023-07-20T15:04:50;20.60;99.90
8611;DHT22;4343;53.648;10.098;2023-07-20T15:07:20;20.50;99.90
8611;DHT22;4343;53.648;10.098;2023-07-20T15:09:47;20.30;99.90
8611;DHT22;4343;53.648;10.098;2023-07-20T15:12:13;20.30;99.90
8611;DHT22;4343;53.648;10.098;2023-07-20T15:14:40;20.10;99.90
8611;DHT22;4343;53.648;10.098;2023-07-20T15:17:05;20.10;99.90
8611;DHT22;4343;53.648;10.098;2023-07-20T15:19:31;20.10;99.90
8611;DHT22;4343;53.648;10.098;2023-07-20T15:21:56;20.00;99.90
8611;DHT22;4343;53.648;10.098;2023-07-20T15:24:22;19.90;99.90
8611;DHT22;4343;53.648;10.098;2023-07-20T15:26:47;19.80;99.90
8611;DHT22;4343;53.648;10.098;2023-07-20T15:29:13;19.80;99.90
8611;DHT22;4343;53.648;10.098;2023-07-20T15:31:38;19.70;99.90
8611;DHT22;4343;53.648;10.098;2023-07-20T15:34:04;19.70;99.90
8611;DHT22;4343;53.648;10.098;2023-07-20T15:36:30;19.70;99.90
8611;DHT22;4343;53.648;10.098;2023-07-20T15:38:56;19.60;99.90
8611;DHT22;4343;53.648;10.098;2023-07-20T15:41:21;19.50;99.90
8611;DHT22;4343;53.648;10.098;2023-07-20T15:43:47;19.50;99.90
8611;DHT22;4343;53.648;10.098;2023-07-20T15:48:46;19.40;99.90
8611;DHT22;4343;53.648;10.098;2023-07-20T15:51:12;19.30;99.90
8611;DHT22;4343;53.648;10.098;2023-07-20T15:53:37;19.30;99.90
8611;DHT22;4343;53.648;10.098;2023-07-20T15:56:03;19.20;99.90
8611;DHT22;4343;53.648;10.098;2023-07-20T15:58:29;19.20;99.90
8611;DHT22;4343;53.648;10.098;2023-07-20T16:00:55;19.20;99.90